Time;durP1;ratioP1;P1;durP2;ratioP2;P2;SDS_P1;SDS_P2;PMS_P1;PMS_P2;Temp;Humidity;BMP_temperature;BMP_pressure;BME280_temperature;BME280_humidity;BME280_pressure;Samples;Min_cycle;Max_cycle;Signal;HPM_P1;HPM_P2
2022/06/20 00:01:21;;;;;;;;;;;19.60;92.70;;;;;;4376023;32;20060;-81
2022/06/20 00:03:48;;;;;;;;;;;19.60;92.70;;;;;;4362444;32;43308;-81
2022/06/20 00:06:17;;;;;;;;;;;19.60;92.80;;;;;;4375692;32;45560;-81
2022/06/20 00:08:44;;;;;;;;;;;19.60;93.00;;;;;;4362308;32;44216;-84
2022/06/20 00:11:13;;;;;;;;;;;19.60;93.00;;;;;;4361653;32;44160;-84
2022/06/20 00:13:42;;;;;;;;;;;19.60;93.00;;;;;;4361765;32;43431;-83
2022/06/20 00:16:12;;;;;;;;;;;19.60;93.10;;;;;;4375016;32;44588;-82
2022/06/20 00:18:39;;;;;;;;;;;19.70;93.20;;;;;;4362344;32;43503;-81
2022/06/20 00:21:09;;;;;;;;;;;19.70;93.50;;;;;;4375634;32;43463;-83
2022/06/20 00:23:39;;;;;;;;;;;19.70;93.70;;;;;;4361568;32;43295;-84
2022/06/20 00:26:06;;;;;;;;;;;19.70;93.80;;;;;;4361540;32;42685;-84
2022/06/20 00:28:33;;;;;;;;;;;19.70;93.90;;;;;;4361965;32;45697;-83
2022/06/20 00:31:01;;;;;;;;;;;19.70;94.00;;;;;;4361328;32;43464;-82
2022/06/20 00:33:28;;;;;;;;;;;19.70;93.90;;;;;;4361131;32;42843;-81
2022/06/20 00:35:56;;;;;;;;;;;19.80;94.10;;;;;;4361791;32;44632;-81
2022/06/20 00:38:24;;;;;;;;;;;19.80;94.00;;;;;;4361325;32;42559;-80
2022/06/20 00:40:53;;;;;;;;;;;19.80;94.00;;;;;;4361402;32;44955;-80
2022/06/20 00:43:30;;;;;;;;;;;19.70;94.00;;;;;;4375315;32;43981;-80
2022/06/20 00:45:58;;;;;;;;;;;19.70;93.80;;;;;;4361891;32;43482;-80
2022/06/20 00:48:36;;;;;;;;;;;19.60;94.10;;;;;;4361310;32;43849;-80
2022/06/20 00:51:07;;;;;;;;;;;19.60;93.90;;;;;;4375168;32;44118;-80
2022/06/20 00:53:39;;;;;;;;;;;19.60;93.70;;;;;;4375383;32;43897;-80
2022/06/20 00:56:13;;;;;;;;;;;19.50;93.70;;;;;;4375316;32;43177;-80
2022/06/20 00:58:42;;;;;;;;;;;19.40;93.80;;;;;;4375391;32;43089;-80
2022/06/20 01:01:14;;;;;;;;;;;19.30;93.90;;;;;;4361206;32;42810;-81
2022/06/20 01:03:47;;;;;;;;;;;19.10;93.90;;;;;;4361363;32;44007;-81
2022/06/20 01:06:19;;;;;;;;;;;19.00;94.10;;;;;;4374589;32;43451;-78
2022/06/20 01:08:49;;;;;;;;;;;19.00;94.30;;;;;;4374659;32;43053;-80
2022/06/20 01:11:22;;;;;;;;;;;18.90;94.50;;;;;;4375040;32;43712;-80
2022/06/20 01:13:49;;;;;;;;;;;18.80;94.40;;;;;;4374555;32;43910;-81
2022/06/20 01:16:17;;;;;;;;;;;18.70;94.70;;;;;;4361087;32;42095;-80
2022/06/20 01:18:45;;;;;;;;;;;18.70;94.60;;;;;;4374651;32;42853;-79
2022/06/20 01:21:13;;;;;;;;;;;18.70;94.80;;;;;;4374884;32;43892;-78
2022/06/20 01:23:40;;;;;;;;;;;18.70;94.90;;;;;;4361076;32;42969;-78
2022/06/20 01:26:26;;;;;;;;;;;18.70;95.20;;;;;;4374940;32;43675;-77
2022/06/20 01:28:54;;;;;;;;;;;18.70;95.30;;;;;;4375079;32;43814;-79
2022/06/20 01:31:23;;;;;;;;;;;18.70;95.20;;;;;;4374612;32;43158;-78
2022/06/20 01:33:50;;;;;;;;;;;18.70;95.20;;;;;;4361958;32;20030;-77
2022/06/20 01:39:05;;;;;;;;;;;18.70;94.80;;;;;;4374767;32;45546;-79
2022/06/20 01:44:20;;;;;;;;;;;18.80;94.70;;;;;;4374768;32;43187;-79
2022/06/20 01:46:47;;;;;;;;;;;18.80;95.00;;;;;;4377109;32;42730;-78
2022/06/20 01:49:19;;;;;;;;;;;18.80;95.00;;;;;;4377532;32;43490;-77
2022/06/20 01:51:48;;;;;;;;;;;18.70;94.70;;;;;;4377616;32;45921;-79
2022/06/20 01:54:18;;;;;;;;;;;18.80;94.90;;;;;;4377275;32;43248;-77
2022/06/20 01:56:47;;;;;;;;;;;18.80;94.90;;;;;;4363882;32;43180;-78
2022/06/20 01:59:16;;;;;;;;;;;18.70;95.10;;;;;;4377089;32;43183;-79
2022/06/20 02:01:43;;;;;;;;;;;18.70;94.80;;;;;;4363456;32;43029;-79
2022/06/20 02:04:13;;;;;;;;;;;18.70;94.70;;;;;;4378146;32;20052;-79
2022/06/20 02:06:41;;;;;;;;;;;18.70;94.80;;;;;;4377366;32;44269;-79
2022/06/20 02:09:10;;;;;;;;;;;18.70;94.80;;;;;;4376961;32;43198;-78
2022/06/20 02:11:39;;;;;;;;;;;18.70;94.90;;;;;;4376863;32;43533;-81
2022/06/20 02:14:13;;;;;;;;;;;18.70;94.80;;;;;;4377298;32;44240;-78
2022/06/20 02:16:43;;;;;;;;;;;18.70;95.30;;;;;;4363850;32;43873;-80
2022/06/20 02:19:13;;;;;;;;;;;18.60;95.10;;;;;;4376878;32;43068;-79
2022/06/20 02:21:41;;;;;;;;;;;18.60;95.20;;;;;;4363382;32;42834;-79
2022/06/20 02:24:12;;;;;;;;;;;18.60;95.10;;;;;;4377102;32;44215;-79
2022/06/20 02:26:41;;;;;;;;;;;18.50;94.90;;;;;;4376768;32;43620;-80
2022/06/20 02:29:20;;;;;;;;;;;18.50;95.10;;;;;;4377250;32;43832;-79
2022/06/20 02:31:48;;;;;;;;;;;18.50;95.00;;;;;;4363577;32;45406;-79
2022/06/20 02:34:15;;;;;;;;;;;18.50;94.90;;;;;;4364265;32;20384;-79
2022/06/20 02:36:43;;;;;;;;;;;18.50;94.90;;;;;;4363213;32;42606;-79
2022/06/20 02:39:11;;;;;;;;;;;18.50;94.90;;;;;;4363469;32;43204;-81
2022/06/20 02:41:39;;;;;;;;;;;18.50;95.00;;;;;;4376853;32;44128;-80
2022/06/20 02:44:09;;;;;;;;;;;18.50;94.90;;;;;;4376913;32;43203;-84
2022/06/20 02:46:37;;;;;;;;;;;18.50;94.80;;;;;;4363243;32;43704;-82
2022/06/20 02:49:09;;;;;;;;;;;18.40;94.70;;;;;;4376410;32;42957;-82
2022/06/20 02:51:37;;;;;;;;;;;18.40;94.70;;;;;;4376826;32;44183;-81
2022/06/20 02:54:05;;;;;;;;;;;18.40;94.70;;;;;;4376970;32;42671;-81
2022/06/20 02:56:36;;;;;;;;;;;18.40;94.70;;;;;;4362195;32;42266;-81
2022/06/20 02:59:05;;;;;;;;;;;18.30;94.80;;;;;;4363514;32;44197;-83
2022/06/20 03:01:42;;;;;;;;;;;18.30;94.90;;;;;;4376233;32;44643;-81
2022/06/20 03:04:10;;;;;;;;;;;18.30;94.90;;;;;;4376340;32;43777;-82
2022/06/20 03:06:45;;;;;;;;;;;18.30;95.00;;;;;;4363315;32;43414;-81
2022/06/20 03:09:14;;;;;;;;;;;18.30;95.40;;;;;;4376689;32;43233;-80
2022/06/20 03:11:41;;;;;;;;;;;18.30;95.30;;;;;;4375983;32;43500;-81
2022/06/20 03:14:13;;;;;;;;;;;18.30;95.30;;;;;;4376075;32;43777;-81
2022/06/20 03:16:40;;;;;;;;;;;18.30;95.30;;;;;;4375993;32;42812;-81
2022/06/20 03:19:22;;;;;;;;;;;18.40;95.40;;;;;;4376466;32;43253;-82
2022/06/20 03:21:49;;;;;;;;;;;18.40;95.40;;;;;;4376542;32;42792;-81
2022/06/20 03:24:18;;;;;;;;;;;18.50;95.50;;;;;;4376102;32;44087;-82
2022/06/20 03:26:45;;;;;;;;;;;18.50;95.50;;;;;;4363138;32;43514;-82
2022/06/20 03:29:14;;;;;;;;;;;18.50;95.60;;;;;;4363064;32;43217;-81
2022/06/20 03:31:41;;;;;;;;;;;18.50;95.40;;;;;;4375975;32;44110;-81
2022/06/20 03:34:09;;;;;;;;;;;18.50;95.40;;;;;;4376320;32;44188;-82
2022/06/20 03:36:36;;;;;;;;;;;18.60;95.60;;;;;;4363383;32;19996;-82
2022/06/20 03:39:04;;;;;;;;;;;18.60;95.50;;;;;;4376034;32;42646;-82
2022/06/20 03:41:32;;;;;;;;;;;18.60;95.50;;;;;;4375913;32;43794;-81
2022/06/20 03:44:12;;;;;;;;;;;18.60;95.50;;;;;;4375663;32;43235;-81
2022/06/20 03:46:41;;;;;;;;;;;18.60;95.60;;;;;;4376122;32;43572;-81
2022/06/20 03:49:34;;;;;;;;;;;18.70;95.60;;;;;;4375670;32;43313;-81
2022/06/20 03:52:05;;;;;;;;;;;18.70;95.60;;;;;;4339473;32;43129;-80
2022/06/20 03:54:41;;;;;;;;;;;18.70;95.60;;;;;;4375926;32;46077;-80
2022/06/20 03:57:10;;;;;;;;;;;18.70;95.60;;;;;;4375551;32;43009;-81
2022/06/20 03:59:58;;;;;;;;;;;18.70;95.50;;;;;;4361931;32;43691;-79
2022/06/20 04:02:29;;;;;;;;;;;18.70;95.50;;;;;;4364816;32;42888;-79
2022/06/20 04:05:00;;;;;;;;;;;18.70;95.60;;;;;;4375881;32;43053;-79
2022/06/20 04:07:34;;;;;;;;;;;18.70;95.60;;;;;;4376007;32;20019;-79
2022/06/20 04:13:01;;;;;;;;;;;18.70;95.70;;;;;;4375247;32;43489;-80
2022/06/20 04:15:36;;;;;;;;;;;18.70;95.70;;;;;;4375784;32;43304;-80
2022/06/20 04:18:29;;;;;;;;;;;18.70;95.80;;;;;;4375683;32;42934;-80
2022/06/20 04:21:02;;;;;;;;;;;18.70;95.70;;;;;;4375064;32;44146;-81
2022/06/20 04:23:42;;;;;;;;;;;18.70;95.80;;;;;;4375104;32;43746;-81
2022/06/20 04:26:28;;;;;;;;;;;18.70;95.80;;;;;;4375529;32;43361;-81
2022/06/20 04:29:04;;;;;;;;;;;18.70;95.80;;;;;;4361687;32;42102;-81
2022/06/20 04:31:36;;;;;;;;;;;18.70;95.80;;;;;;4361727;32;43813;-82
2022/06/20 04:34:10;;;;;;;;;;;18.70;95.80;;;;;;4361596;32;42662;-81
2022/06/20 04:36:42;;;;;;;;;;;18.70;95.80;;;;;;4375135;32;43813;-83
2022/06/20 04:39:14;;;;;;;;;;;18.60;95.70;;;;;;4362418;32;43799;-83
2022/06/20 04:41:44;;;;;;;;;;;18.50;95.70;;;;;;4375555;32;44106;-83
2022/06/20 04:44:28;;;;;;;;;;;18.50;96.00;;;;;;4361977;32;43235;-83
2022/06/20 04:47:28;;;;;;;;;;;18.50;96.00;;;;;;4362209;32;45132;-83
2022/06/20 04:49:55;;;;;;;;;;;18.50;96.00;;;;;;4341845;32;43355;-84
2022/06/20 04:52:24;;;;;;;;;;;18.50;96.10;;;;;;4362066;32;43291;-85
2022/06/20 04:54:52;;;;;;;;;;;18.50;96.00;;;;;;4375077;32;44518;-85
2022/06/20 04:57:19;;;;;;;;;;;18.50;96.10;;;;;;4361862;32;44217;-85
2022/06/20 04:59:47;;;;;;;;;;;18.50;96.00;;;;;;4374620;32;44241;-85
2022/06/20 05:02:19;;;;;;;;;;;18.50;96.00;;;;;;4374735;32;43315;-85
2022/06/20 05:04:48;;;;;;;;;;;18.50;95.90;;;;;;4361109;32;43760;-85
2022/06/20 05:07:22;;;;;;;;;;;18.50;95.90;;;;;;4374409;32;42727;-85
2022/06/20 05:09:58;;;;;;;;;;;18.50;95.90;;;;;;4375943;32;20012;-86
2022/06/20 05:12:28;;;;;;;;;;;18.50;95.80;;;;;;4361519;32;45454;-86
2022/06/20 05:15:01;;;;;;;;;;;18.50;95.90;;;;;;4361265;32;43445;-86
2022/06/20 05:17:29;;;;;;;;;;;18.50;95.90;;;;;;4375185;32;43279;-86
2022/06/20 05:19:59;;;;;;;;;;;18.50;95.90;;;;;;4361878;32;45964;-86
2022/06/20 05:22:30;;;;;;;;;;;18.50;95.90;;;;;;4364847;32;43163;-85
2022/06/20 05:24:58;;;;;;;;;;;18.50;96.00;;;;;;4378078;32;43175;-86
2022/06/20 05:27:28;;;;;;;;;;;18.50;95.90;;;;;;4364327;32;43510;-87
2022/06/20 05:30:00;;;;;;;;;;;18.50;95.90;;;;;;4364508;32;42366;-85
2022/06/20 05:32:30;;;;;;;;;;;18.50;95.80;;;;;;4378376;32;43190;-84
2022/06/20 05:35:08;;;;;;;;;;;18.50;95.80;;;;;;4378650;32;42801;-86
2022/06/20 05:37:41;;;;;;;;;;;18.50;95.90;;;;;;4378109;32;46363;-85
2022/06/20 05:40:08;;;;;;;;;;;18.50;95.80;;;;;;4378525;32;20397;-85
2022/06/20 05:42:36;;;;;;;;;;;18.50;95.70;;;;;;4364132;32;42569;-85
2022/06/20 05:45:12;;;;;;;;;;;18.50;95.60;;;;;;4364170;32;44563;-85
2022/06/20 05:47:39;;;;;;;;;;;18.40;95.70;;;;;;4378038;32;45764;-85
2022/06/20 05:50:24;;;;;;;;;;;18.40;95.70;;;;;;4364490;32;43269;-85
2022/06/20 05:52:51;;;;;;;;;;;18.40;95.70;;;;;;4377528;32;44951;-85
2022/06/20 05:55:28;;;;;;;;;;;18.30;95.50;;;;;;4378589;32;43918;-86
2022/06/20 05:57:56;;;;;;;;;;;18.30;95.50;;;;;;4364812;32;43877;-85
2022/06/20 06:00:25;;;;;;;;;;;18.30;95.60;;;;;;4364265;32;44062;-86
2022/06/20 06:02:58;;;;;;;;;;;18.30;95.60;;;;;;4364230;32;45763;-85
2022/06/20 06:05:42;;;;;;;;;;;18.30;95.60;;;;;;4364068;32;44909;-84
2022/06/20 06:08:11;;;;;;;;;;;18.30;95.60;;;;;;4364538;32;42645;-84
2022/06/20 06:11:16;;;;;;;;;;;18.30;95.70;;;;;;4377636;32;44724;-84
2022/06/20 06:13:44;;;;;;;;;;;18.30;95.60;;;;;;4364334;32;44608;-84
2022/06/20 06:19:05;;;;;;;;;;;18.20;95.70;;;;;;4377340;32;44709;-84
2022/06/20 06:21:33;;;;;;;;;;;18.20;95.60;;;;;;4377922;32;44100;-84
2022/06/20 06:24:01;;;;;;;;;;;18.20;95.60;;;;;;4364087;32;45387;-84
2022/06/20 06:26:28;;;;;;;;;;;18.20;95.70;;;;;;4363806;32;43454;-82
2022/06/20 06:28:55;;;;;;;;;;;18.20;95.70;;;;;;4363900;32;43176;-83
2022/06/20 06:31:29;;;;;;;;;;;18.20;95.70;;;;;;4362435;32;44322;-84
2022/06/20 06:34:00;;;;;;;;;;;18.20;95.80;;;;;;4376692;32;42503;-82
2022/06/20 06:36:39;;;;;;;;;;;18.10;95.90;;;;;;4376690;32;42842;-81
2022/06/20 06:39:25;;;;;;;;;;;18.10;95.80;;;;;;4377224;32;44202;-81
2022/06/20 06:41:56;;;;;;;;;;;18.10;95.80;;;;;;4377768;32;20035;-81
2022/06/20 06:44:31;;;;;;;;;;;18.10;95.80;;;;;;4362992;32;44282;-81
2022/06/20 06:47:00;;;;;;;;;;;18.10;95.80;;;;;;4376583;32;42610;-81
2022/06/20 06:49:31;;;;;;;;;;;18.10;95.80;;;;;;4376505;32;44329;-81
2022/06/20 06:52:02;;;;;;;;;;;18.10;96.00;;;;;;4376735;32;44446;-80
2022/06/20 06:54:41;;;;;;;;;;;18.00;96.00;;;;;;4362956;32;42907;-81
2022/06/20 06:57:27;;;;;;;;;;;18.00;96.20;;;;;;4376367;32;43470;-81
2022/06/20 07:00:14;;;;;;;;;;;18.10;96.30;;;;;;4362923;32;43549;-81
2022/06/20 07:02:43;;;;;;;;;;;18.00;96.00;;;;;;4362449;32;43363;-81
2022/06/20 07:05:14;;;;;;;;;;;18.00;95.90;;;;;;4363114;32;44313;-81
2022/06/20 07:07:44;;;;;;;;;;;18.00;96.10;;;;;;4362809;32;43288;-81
2022/06/20 07:10:40;;;;;;;;;;;18.00;96.40;;;;;;4363439;32;44206;-81
2022/06/20 07:13:21;;;;;;;;;;;18.00;96.30;;;;;;4363489;32;43967;-81
2022/06/20 07:15:51;;;;;;;;;;;18.00;96.40;;;;;;4376090;32;43187;-81
2022/06/20 07:18:39;;;;;;;;;;;18.00;96.30;;;;;;4376565;32;44186;-81
2022/06/20 07:21:12;;;;;;;;;;;18.00;96.40;;;;;;4376164;32;43906;-81
2022/06/20 07:23:42;;;;;;;;;;;18.00;96.30;;;;;;4376298;32;44704;-81
2022/06/20 07:26:11;;;;;;;;;;;18.10;96.20;;;;;;4376065;32;44077;-81
2022/06/20 07:28:38;;;;;;;;;;;18.00;96.30;;;;;;4362551;32;43517;-81
2022/06/20 07:31:10;;;;;;;;;;;18.00;96.50;;;;;;4362811;32;44219;-81
2022/06/20 07:33:42;;;;;;;;;;;18.00;96.40;;;;;;4362344;32;44287;-81
2022/06/20 07:36:11;;;;;;;;;;;18.00;96.30;;;;;;4376206;32;44074;-81
2022/06/20 07:38:49;;;;;;;;;;;18.00;96.50;;;;;;4375728;32;44119;-81
2022/06/20 07:41:19;;;;;;;;;;;18.10;96.40;;;;;;4362557;32;44056;-81
2022/06/20 07:43:54;;;;;;;;;;;18.10;96.30;;;;;;4363120;32;19993;-83
2022/06/20 07:46:30;;;;;;;;;;;18.10;96.40;;;;;;4376067;32;46088;-81
2022/06/20 07:49:00;;;;;;;;;;;18.00;96.40;;;;;;4375897;32;44573;-82
2022/06/20 07:51:31;;;;;;;;;;;18.00;96.10;;;;;;4362653;32;46090;-81
2022/06/20 07:54:19;;;;;;;;;;;18.00;96.40;;;;;;4362726;32;43890;-81
2022/06/20 07:56:54;;;;;;;;;;;18.00;96.30;;;;;;4375370;32;44769;-82
2022/06/20 07:59:30;;;;;;;;;;;18.00;96.30;;;;;;4375847;32;43470;-81
2022/06/20 08:02:06;;;;;;;;;;;18.00;96.40;;;;;;4361857;32;42618;-82
2022/06/20 08:04:34;;;;;;;;;;;18.00;96.30;;;;;;4362405;32;44640;-81
2022/06/20 08:07:05;;;;;;;;;;;18.00;96.40;;;;;;4361768;32;42664;-82
2022/06/20 08:09:38;;;;;;;;;;;18.10;96.50;;;;;;4375349;32;43793;-82
2022/06/20 08:12:09;;;;;;;;;;;18.00;96.50;;;;;;4375675;32;42291;-82
2022/06/20 08:14:42;;;;;;;;;;;18.00;96.30;;;;;;4375470;32;42277;-82
2022/06/20 08:17:11;;;;;;;;;;;18.00;96.10;;;;;;4362027;32;45770;-81
2022/06/20 08:19:40;;;;;;;;;;;18.10;95.90;;;;;;4375310;32;43388;-81
2022/06/20 08:22:43;;;;;;;;;;;18.00;95.70;;;;;;4375358;32;43315;-81
2022/06/20 08:25:13;;;;;;;;;;;18.00;95.70;;;;;;4314133;33;42594;-82
2022/06/20 08:27:50;;;;;;;;;;;18.00;95.80;;;;;;4364127;32;43245;-81
2022/06/20 08:30:17;;;;;;;;;;;18.00;95.70;;;;;;4361893;32;45802;-81
2022/06/20 08:32:57;;;;;;;;;;;18.00;95.80;;;;;;4374862;32;43419;-81
2022/06/20 08:35:24;;;;;;;;;;;18.00;95.70;;;;;;4375475;32;44172;-81
2022/06/20 08:37:57;;;;;;;;;;;18.00;95.40;;;;;;4361979;32;43005;-81
2022/06/20 08:40:37;;;;;;;;;;;18.00;95.80;;;;;;4361361;32;42859;-81
2022/06/20 08:43:32;;;;;;;;;;;18.00;96.00;;;;;;4375221;32;42277;-81
2022/06/20 08:45:59;;;;;;;;;;;18.00;95.80;;;;;;4375749;32;20011;-81
2022/06/20 08:48:53;;;;;;;;;;;18.00;95.80;;;;;;4375434;32;43197;-81
2022/06/20 08:51:34;;;;;;;;;;;18.00;95.90;;;;;;4375285;32;44296;-81
2022/06/20 08:54:11;;;;;;;;;;;18.00;96.20;;;;;;4361753;32;43889;-81
2022/06/20 08:56:38;;;;;;;;;;;18.10;95.90;;;;;;4374691;32;44001;-80
2022/06/20 08:59:06;;;;;;;;;;;18.10;95.70;;;;;;4361367;32;44080;-81
2022/06/20 09:01:37;;;;;;;;;;;18.10;95.90;;;;;;4361351;32;45082;-80
2022/06/20 09:04:10;;;;;;;;;;;18.10;95.90;;;;;;4374634;32;43916;-81
2022/06/20 09:07:00;;;;;;;;;;;18.10;95.80;;;;;;4361253;32;44196;-80
2022/06/20 09:09:46;;;;;;;;;;;18.10;95.50;;;;;;4374652;32;43366;-80
2022/06/20 09:12:25;;;;;;;;;;;18.10;95.60;;;;;;4374877;32;44933;-80
2022/06/20 09:15:02;;;;;;;;;;;18.10;96.00;;;;;;4361597;32;43886;-80
2022/06/20 09:17:32;;;;;;;;;;;18.20;95.70;;;;;;4361448;32;42991;-80
2022/06/20 09:20:08;;;;;;;;;;;18.10;95.80;;;;;;4374451;32;43768;-80
2022/06/20 09:22:52;;;;;;;;;;;18.20;95.80;;;;;;4361134;32;43815;-80
2022/06/20 09:25:19;;;;;;;;;;;18.20;95.70;;;;;;4374924;32;44216;-80
2022/06/20 09:27:49;;;;;;;;;;;18.20;95.80;;;;;;4361024;32;42906;-79
2022/06/20 09:30:16;;;;;;;;;;;18.20;95.70;;;;;;4375082;32;44175;-80
2022/06/20 09:32:57;;;;;;;;;;;18.20;95.70;;;;;;4361646;32;43091;-80
2022/06/20 09:35:34;;;;;;;;;;;18.20;95.50;;;;;;4374888;32;42645;-80
2022/06/20 09:38:04;;;;;;;;;;;18.20;95.70;;;;;;4361038;32;44624;-80
2022/06/20 09:40:40;;;;;;;;;;;18.20;95.70;;;;;;4361421;32;44251;-80
2022/06/20 09:43:07;;;;;;;;;;;18.20;95.90;;;;;;4374681;32;43658;-80
2022/06/20 09:45:46;;;;;;;;;;;18.20;95.80;;;;;;4361350;32;45226;-80
2022/06/20 09:48:32;;;;;;;;;;;18.20;95.60;;;;;;4374960;32;44097;-80
2022/06/20 09:51:05;;;;;;;;;;;18.20;95.60;;;;;;4361431;32;44186;-80
2022/06/20 09:53:32;;;;;;;;;;;18.20;95.80;;;;;;4361170;32;45656;-80
2022/06/20 09:56:12;;;;;;;;;;;18.20;95.70;;;;;;4374130;32;44143;-80
2022/06/20 09:59:02;;;;;;;;;;;18.10;95.50;;;;;;4374177;32;44286;-81
2022/06/20 10:01:32;;;;;;;;;;;18.10;95.60;;;;;;4374512;32;43881;-81
2022/06/20 10:04:24;;;;;;;;;;;18.20;95.70;;;;;;4374884;32;43740;-81
2022/06/20 10:07:16;;;;;;;;;;;18.10;95.80;;;;;;4365498;32;46241;-82
2022/06/20 10:10:03;;;;;;;;;;;18.20;95.50;;;;;;4377815;32;43367;-81
2022/06/20 10:12:46;;;;;;;;;;;18.10;95.20;;;;;;4363856;32;43337;-81
2022/06/20 10:15:31;;;;;;;;;;;18.10;95.20;;;;;;4376807;32;42912;-82
2022/06/20 10:18:03;;;;;;;;;;;18.10;95.10;;;;;;4364629;32;20046;-82
2022/06/20 10:20:30;;;;;;;;;;;18.10;95.00;;;;;;4363903;32;46015;-81
2022/06/20 10:23:02;;;;;;;;;;;18.10;95.20;;;;;;4376652;32;43840;-82
2022/06/20 10:25:32;;;;;;;;;;;18.10;95.20;;;;;;4377092;32;44622;-81
2022/06/20 10:28:05;;;;;;;;;;;18.10;94.90;;;;;;4376771;32;44314;-81
2022/06/20 10:30:40;;;;;;;;;;;18.10;95.00;;;;;;4363509;32;44060;-81
2022/06/20 10:33:19;;;;;;;;;;;18.10;95.50;;;;;;4376578;32;42706;-81
2022/06/20 10:36:05;;;;;;;;;;;18.10;95.50;;;;;;4363500;32;42295;-83
2022/06/20 10:38:35;;;;;;;;;;;18.20;95.70;;;;;;4376524;32;44242;-81
2022/06/20 10:41:07;;;;;;;;;;;18.20;95.50;;;;;;4376505;32;42914;-81
2022/06/20 10:43:44;;;;;;;;;;;18.20;95.70;;;;;;4363236;32;44171;-81
2022/06/20 10:46:17;;;;;;;;;;;18.20;95.30;;;;;;4363508;32;43780;-81
2022/06/20 10:48:46;;;;;;;;;;;18.20;95.20;;;;;;4376990;32;43854;-81
2022/06/20 10:51:16;;;;;;;;;;;18.20;95.30;;;;;;4376828;32;44734;-82
2022/06/20 10:53:46;;;;;;;;;;;18.20;95.10;;;;;;4362683;32;43695;-80
2022/06/20 10:56:14;;;;;;;;;;;18.30;95.30;;;;;;4363169;32;43500;-80
2022/06/20 10:58:59;;;;;;;;;;;18.30;95.20;;;;;;4376739;32;44235;-81
2022/06/20 11:01:45;;;;;;;;;;;18.30;95.30;;;;;;4376148;32;44238;-81
2022/06/20 11:04:29;;;;;;;;;;;18.30;95.20;;;;;;4376294;32;44305;-81
2022/06/20 11:07:11;;;;;;;;;;;18.40;94.90;;;;;;4376958;32;44215;-80
2022/06/20 11:09:43;;;;;;;;;;;18.30;94.90;;;;;;4362784;32;42703;-81
2022/06/20 11:12:42;;;;;;;;;;;18.40;95.10;;;;;;4363328;32;43419;-81
2022/06/20 11:15:24;;;;;;;;;;;18.40;95.20;;;;;;4340370;32;44277;-81
2022/06/20 11:18:12;;;;;;;;;;;18.40;95.20;;;;;;4362493;32;45935;-81
2022/06/20 11:20:50;;;;;;;;;;;18.40;95.10;;;;;;4376292;32;44453;-81
2022/06/20 11:23:20;;;;;;;;;;;18.50;95.20;;;;;;4376428;32;44698;-81
2022/06/20 11:25:56;;;;;;;;;;;18.40;95.20;;;;;;4363222;32;45572;-82
2022/06/20 11:28:29;;;;;;;;;;;18.50;95.30;;;;;;4376254;32;43855;-82
2022/06/20 11:31:15;;;;;;;;;;;18.50;95.20;;;;;;4376307;32;43722;-81
2022/06/20 11:34:01;;;;;;;;;;;18.50;95.00;;;;;;4362191;32;44274;-81
2022/06/20 11:36:48;;;;;;;;;;;18.50;95.00;;;;;;4362512;32;43706;-80
2022/06/20 11:39:22;;;;;;;;;;;18.50;95.20;;;;;;4345189;32;43641;-80
2022/06/20 11:41:51;;;;;;;;;;;18.50;94.90;;;;;;4362387;32;42702;-77
2022/06/20 11:44:21;;;;;;;;;;;18.60;94.80;;;;;;4362336;32;44193;-80
2022/06/20 11:47:07;;;;;;;;;;;18.60;94.80;;;;;;4362234;32;44369;-81
2022/06/20 11:49:53;;;;;;;;;;;18.60;94.80;;;;;;4363130;32;20059;-83
2022/06/20 11:52:27;;;;;;;;;;;18.60;95.10;;;;;;4375641;32;44768;-81
2022/06/20 11:55:04;;;;;;;;;;;18.60;94.90;;;;;;4375964;32;45022;-80
2022/06/20 11:57:43;;;;;;;;;;;18.60;95.00;;;;;;4362972;32;44025;-81
2022/06/20 12:00:25;;;;;;;;;;;18.70;94.70;;;;;;4362711;32;46272;-81
2022/06/20 12:03:16;;;;;;;;;;;18.70;94.80;;;;;;4362298;32;43289;-80
2022/06/20 12:05:43;;;;;;;;;;;18.70;94.90;;;;;;4362371;32;43860;-79
2022/06/20 12:08:25;;;;;;;;;;;18.70;94.80;;;;;;4375863;32;42931;-80
2022/06/20 12:10:53;;;;;;;;;;;18.70;94.60;;;;;;4361867;32;42855;-80
2022/06/20 12:13:20;;;;;;;;;;;18.70;94.70;;;;;;4375897;32;44274;-77
2022/06/20 12:15:54;;;;;;;;;;;18.80;94.50;;;;;;4361844;32;42712;-80
2022/06/20 12:18:24;;;;;;;;;;;18.80;94.30;;;;;;4362294;32;42598;-79
2022/06/20 12:23:41;;;;;;;;;;;18.80;94.20;;;;;;4375614;32;45673;-80
2022/06/20 12:26:17;;;;;;;;;;;18.80;94.20;;;;;;4375260;32;42796;-80
2022/06/20 12:28:45;;;;;;;;;;;18.90;94.00;;;;;;4375490;32;43478;-80
2022/06/20 12:31:22;;;;;;;;;;;18.90;94.10;;;;;;4362033;32;43520;-81
2022/06/20 12:33:53;;;;;;;;;;;18.80;94.10;;;;;;4361637;32;42382;-79
2022/06/20 12:36:39;;;;;;;;;;;18.80;94.10;;;;;;4374873;32;44133;-80
2022/06/20 12:39:13;;;;;;;;;;;18.90;94.10;;;;;;4361462;32;44157;-80
2022/06/20 12:41:42;;;;;;;;;;;18.90;94.00;;;;;;4361424;32;42669;-78
2022/06/20 12:44:21;;;;;;;;;;;18.90;94.00;;;;;;4361275;32;43593;-80
2022/06/20 12:46:50;;;;;;;;;;;18.90;94.20;;;;;;4361881;32;44583;-80
2022/06/20 12:49:32;;;;;;;;;;;18.90;93.90;;;;;;4361801;32;43797;-80
2022/06/20 12:52:04;;;;;;;;;;;19.00;94.10;;;;;;4361967;32;44784;-79
2022/06/20 12:54:43;;;;;;;;;;;19.00;94.00;;;;;;4361729;32;43168;-81
2022/06/20 12:57:13;;;;;;;;;;;19.00;94.10;;;;;;4361281;32;43304;-80
2022/06/20 12:59:41;;;;;;;;;;;19.00;92.80;;;;;;4361688;32;44175;-80
2022/06/20 13:02:30;;;;;;;;;;;19.00;93.10;;;;;;4361229;32;43908;-80
2022/06/20 13:05:13;;;;;;;;;;;19.00;93.60;;;;;;4361829;32;45173;-80
2022/06/20 13:07:40;;;;;;;;;;;19.10;93.60;;;;;;4360981;32;45505;-80
2022/06/20 13:10:23;;;;;;;;;;;19.10;93.80;;;;;;4361077;32;44114;-80
2022/06/20 13:13:03;;;;;;;;;;;19.10;93.60;;;;;;4374520;32;45843;-81
2022/06/20 13:15:43;;;;;;;;;;;19.10;93.60;;;;;;4361521;32;44146;-81
2022/06/20 13:18:34;;;;;;;;;;;19.20;93.20;;;;;;4361641;32;44137;-85
2022/06/20 13:21:20;;;;;;;;;;;19.20;93.40;;;;;;4361630;32;44239;-80
2022/06/20 13:23:47;;;;;;;;;;;19.20;93.40;;;;;;4361014;32;43266;-78
2022/06/20 13:26:18;;;;;;;;;;;19.20;93.40;;;;;;4361109;32;44903;-80
2022/06/20 13:28:48;;;;;;;;;;;19.30;92.90;;;;;;4361284;32;43088;-80
2022/06/20 13:31:18;;;;;;;;;;;19.30;92.80;;;;;;4361677;32;44078;-80
2022/06/20 13:33:49;;;;;;;;;;;19.30;92.00;;;;;;4374676;32;44561;-80
2022/06/20 13:36:22;;;;;;;;;;;19.30;92.40;;;;;;4361415;32;42715;-80
2022/06/20 13:39:09;;;;;;;;;;;19.30;92.60;;;;;;4374662;32;45805;-80
2022/06/20 13:41:46;;;;;;;;;;;19.30;92.70;;;;;;4375722;32;43490;-80
2022/06/20 13:44:26;;;;;;;;;;;19.40;92.90;;;;;;4377626;32;46092;-80
2022/06/20 13:47:12;;;;;;;;;;;19.40;92.50;;;;;;4378028;32;42947;-81
2022/06/20 13:49:44;;;;;;;;;;;19.40;92.40;;;;;;4377903;32;43526;-80
2022/06/20 13:52:30;;;;;;;;;;;19.40;92.50;;;;;;4364385;32;27066;-80
2022/06/20 13:55:13;;;;;;;;;;;19.40;92.40;;;;;;4364260;32;21665;-80
2022/06/20 13:57:44;;;;;;;;;;;19.40;92.30;;;;;;4377738;32;43346;-83
2022/06/20 14:00:17;;;;;;;;;;;19.40;92.10;;;;;;4377066;32;42926;-80
2022/06/20 14:03:04;;;;;;;;;;;19.40;92.40;;;;;;4363735;32;43490;-82
2022/06/20 14:05:33;;;;;;;;;;;19.50;92.40;;;;;;4364163;32;42862;-81
2022/06/20 14:08:12;;;;;;;;;;;19.50;92.50;;;;;;4363528;32;44244;-81
2022/06/20 14:10:53;;;;;;;;;;;19.50;92.50;;;;;;4363351;32;44088;-82
2022/06/20 14:13:47;;;;;;;;;;;19.50;92.40;;;;;;4363775;32;45188;-82
2022/06/20 14:16:23;;;;;;;;;;;19.50;92.40;;;;;;4361110;32;43983;-81
2022/06/20 14:19:00;;;;;;;;;;;19.60;92.60;;;;;;4363694;32;44822;-81
2022/06/20 14:21:31;;;;;;;;;;;19.60;92.30;;;;;;4377103;32;44080;-81
2022/06/20 14:23:58;;;;;;;;;;;19.60;91.30;;;;;;4363254;32;44268;-80
2022/06/20 14:26:33;;;;;;;;;;;19.60;91.60;;;;;;4364402;32;20056;-80
2022/06/20 14:29:04;;;;;;;;;;;19.60;91.20;;;;;;4377427;32;44180;-81
2022/06/20 14:31:35;;;;;;;;;;;19.60;91.40;;;;;;4363918;32;43833;-81
2022/06/20 14:34:09;;;;;;;;;;;19.60;91.40;;;;;;4377016;32;43904;-80
2022/06/20 14:36:42;;;;;;;;;;;19.70;91.70;;;;;;4363165;32;43922;-80
2022/06/20 14:39:12;;;;;;;;;;;19.60;91.90;;;;;;4363235;32;44211;-80
2022/06/20 14:41:58;;;;;;;;;;;19.70;92.10;;;;;;4363686;32;43002;-80
2022/06/20 14:44:44;;;;;;;;;;;19.70;91.80;;;;;;4377026;32;43482;-81
2022/06/20 14:47:31;;;;;;;;;;;19.80;91.80;;;;;;4363465;32;44758;-87
2022/06/20 14:50:03;;;;;;;;;;;19.70;91.90;;;;;;4353529;32;42925;-83
2022/06/20 14:52:53;;;;;;;;;;;19.80;91.70;;;;;;4362568;32;44828;-82
2022/06/20 14:55:29;;;;;;;;;;;19.80;91.70;;;;;;4363498;32;43185;-81
2022/06/20 14:58:00;;;;;;;;;;;19.80;91.60;;;;;;4377652;32;19996;-82
2022/06/20 15:00:36;;;;;;;;;;;19.80;91.60;;;;;;4376592;32;43047;-82
2022/06/20 15:03:17;;;;;;;;;;;19.80;91.50;;;;;;4363075;32;43918;-83
2022/06/20 15:06:17;;;;;;;;;;;19.80;91.50;;;;;;4363299;32;43533;-82
2022/06/20 15:09:03;;;;;;;;;;;19.80;91.10;;;;;;4338355;32;43947;-81
2022/06/20 15:11:32;;;;;;;;;;;19.90;91.30;;;;;;4376490;32;44271;-82